sensor_id;sensor_type;location;lat;lon;timestamp;pressure;altitude;pressure_sealevel;temperature;humidity
46087;BME280;31824;49.648;8.640;2023-01-28T00:00:30;101132.66;;;2.32;100.00
46087;BME280;31824;49.648;8.640;2023-01-28T00:03:32;101126.56;;;2.31;100.00
46087;BME280;31824;49.648;8.640;2023-01-28T00:06:34;101128.84;;;2.35;100.00
46087;BME280;31824;49.648;8.640;2023-01-28T00:09:36;101130.19;;;2.39;100.00
46087;BME280;31824;49.648;8.640;2023-01-28T00:12:41;101119.41;;;2.36;100.00
46087;BME280;31824;49.648;8.640;2023-01-28T00:15:43;101122.13;;;2.43;100.00
46087;BME280;31824;49.648;8.640;2023-01-28T00:18:45;101118.81;;;2.44;100.00
46087;BME280;31824;49.648;8.640;2023-01-28T00:21:47;101118.81;;;2.44;100.00
46087;BME280;31824;49.648;8.640;2023-01-28T00:24:49;101111.75;;;2.43;100.00
46087;BME280;31824;49.648;8.640;2023-01-28T00:27:52;101114.13;;;2.42;100.00
46087;BME280;31824;49.648;8.640;2023-01-28T00:30:53;101108.53;;;2.39;100.00
46087;BME280;31824;49.648;8.640;2023-01-28T00:33:56;101102.84;;;2.41;100.00
46087;BME280;31824;49.648;8.640;2023-01-28T00:36:58;101110.63;;;2.41;100.00
46087;BME280;31824;49.648;8.640;2023-01-28T00:40:00;101108.94;;;2.42;100.00
46087;BME280;31824;49.648;8.640;2023-01-28T00:43:03;101104.25;;;2.39;100.00
46087;BME280;31824;49.648;8.640;2023-01-28T00:46:06;101100.34;;;2.35;100.00
46087;BME280;31824;49.648;8.640;2023-01-28T00:49:08;101109.97;;;2.36;100.00
46087;BME280;31824;49.648;8.640;2023-01-28T00:52:10;101114.22;;;2.36;100.00
46087;BME280;31824;49.648;8.640;2023-01-28T00:55:12;101109.34;;;2.32;100.00
46087;BME280;31824;49.648;8.640;2023-01-28T00:58:16;101111.72;;;2.30;100.00
46087;BME280;31824;49.648;8.640;2023-01-28T01:01:20;101111.59;;;2.23;100.00
46087;BME280;31824;49.648;8.640;2023-01-28T01:04:22;101119.06;;;2.27;100.00
46087;BME280;31824;49.648;8.640;2023-01-28T01:07:29;101114.81;;;2.28;100.00
46087;BME280;31824;49.648;8.640;2023-01-28T01:10:43;101120.09;;;2.22;100.00
46087;BME280;31824;49.648;8.640;2023-01-28T01:13:51;101117.88;;;2.12;100.00
46087;BME280;31824;49.648;8.640;2023-01-28T01:16:53;101124.47;;;2.10;100.00
46087;BME280;31824;49.648;8.640;2023-01-28T01:19:55;101122.75;;;2.16;100.00
46087;BME280;31824;49.648;8.640;2023-01-28T01:22:56;101122.59;;;2.28;100.00
46087;BME280;31824;49.648;8.640;2023-01-28T01:25:59;101121.66;;;2.27;100.00
46087;BME280;31824;49.648;8.640;2023-01-28T01:29:04;101134.84;;;2.29;100.00
46087;BME280;31824;49.648;8.640;2023-01-28T01:32:05;101133.66;;;2.27;100.00
46087;BME280;31824;49.648;8.640;2023-01-28T01:35:09;101134.84;;;2.29;100.00
46087;BME280;31824;49.648;8.640;2023-01-28T01:38:13;101128.91;;;2.30;100.00
46087;BME280;31824;49.648;8.640;2023-01-28T01:41:23;101130.06;;;2.32;100.00
46087;BME280;31824;49.648;8.640;2023-01-28T01:44:58;101132.47;;;2.30;100.00
46087;BME280;31824;49.648;8.640;2023-01-28T01:48:02;101137.84;;;2.32;100.00
46087;BME280;31824;49.648;8.640;2023-01-28T01:51:08;101137.13;;;2.33;100.00
46087;BME280;31824;49.648;8.640;2023-01-28T01:54:12;101135.25;;;2.32;100.00
46087;BME280;31824;49.648;8.640;2023-01-28T01:57:19;101142.53;;;2.34;100.00
46087;BME280;31824;49.648;8.640;2023-01-28T02:00:24;101135.25;;;2.32;100.00
46087;BME280;31824;49.648;8.640;2023-01-28T02:06:41;101142.13;;;2.31;100.00
46087;BME280;31824;49.648;8.640;2023-01-28T02:09:43;101136.94;;;2.31;100.00
46087;BME280;31824;49.648;8.640;2023-01-28T02:12:48;101145.72;;;2.26;100.00
46087;BME280;31824;49.648;8.640;2023-01-28T02:15:54;101144.22;;;2.15;100.00
46087;BME280;31824;49.648;8.640;2023-01-28T02:18:56;101142.47;;;1.84;100.00
46087;BME280;31824;49.648;8.640;2023-01-28T02:22:08;101160.63;;;1.60;100.00
46087;BME280;31824;49.648;8.640;2023-01-28T02:25:33;101165.59;;;1.59;100.00
46087;BME280;31824;49.648;8.640;2023-01-28T02:28:45;101173.91;;;1.50;100.00
46087;BME280;31824;49.648;8.640;2023-01-28T02:31:53;101165.09;;;1.37;100.00
46087;BME280;31824;49.648;8.640;2023-01-28T02:35:00;101178.31;;;1.33;100.00
46087;BME280;31824;49.648;8.640;2023-01-28T02:38:08;101169.47;;;1.25;100.00
46087;BME280;31824;49.648;8.640;2023-01-28T02:41:16;101169.13;;;1.11;100.00
46087;BME280;31824;49.648;8.640;2023-01-28T02:44:23;101172.41;;;1.10;100.00
46087;BME280;31824;49.648;8.640;2023-01-28T02:47:26;101169.13;;;1.11;100.00
46087;BME280;31824;49.648;8.640;2023-01-28T02:50:50;101172.69;;;1.06;100.00
46087;BME280;31824;49.648;8.640;2023-01-28T02:54:03;101168.22;;;1.05;100.00
46087;BME280;31824;49.648;8.640;2023-01-28T02:57:18;101166.63;;;0.99;100.00
46087;BME280;31824;49.648;8.640;2023-01-28T03:00:26;101178.63;;;0.99;100.00
46087;BME280;31824;49.648;8.640;2023-01-28T03:03:38;101185.47;;;0.98;100.00
46087;BME280;31824;49.648;8.640;2023-01-28T03:06:46;101183.09;;;1.00;100.00
46087;BME280;31824;49.648;8.640;2023-01-28T03:09:51;101175.81;;;0.97;100.00
46087;BME280;31824;49.648;8.640;2023-01-28T03:12:55;101182.88;;;0.98;100.00
46087;BME280;31824;49.648;8.640;2023-01-28T03:16:17;101176.44;;;1.08;100.00
46087;BME280;31824;49.648;8.640;2023-01-28T03:19:38;101173.59;;;1.12;100.00
46087;BME280;31824;49.648;8.640;2023-01-28T03:23:02;101180.63;;;1.13;100.00
46087;BME280;31824;49.648;8.640;2023-01-28T03:26:29;101182.97;;;1.17;100.00
46087;BME280;31824;49.648;8.640;2023-01-28T03:29:53;101180.31;;;1.23;100.00
46087;BME280;31824;49.648;8.640;2023-01-28T03:33:17;101180.22;;;1.34;100.00
46087;BME280;31824;49.648;8.640;2023-01-28T03:36:38;101176.34;;;1.43;100.00
46087;BME280;31824;49.648;8.640;2023-01-28T03:40:12;101188.97;;;1.53;100.00
46087;BME280;31824;49.648;8.640;2023-01-28T03:43:17;101188.25;;;1.54;100.00
46087;BME280;31824;49.648;8.640;2023-01-28T03:46:21;101185.81;;;1.61;100.00
46087;BME280;31824;49.648;8.640;2023-01-28T03:49:24;101193.31;;;1.65;100.00
46087;BME280;31824;49.648;8.640;2023-01-28T03:52:28;101197.06;;;1.67;100.00
46087;BME280;31824;49.648;8.640;2023-01-28T03:55:42;101204.56;;;1.72;100.00
46087;BME280;31824;49.648;8.640;2023-01-28T03:58:45;101207.59;;;1.75;100.00
46087;BME280;31824;49.648;8.640;2023-01-28T04:01:53;101204.06;;;1.74;100.00
46087;BME280;31824;49.648;8.640;2023-01-28T04:04:58;101202.13;;;1.79;100.00
46087;BME280;31824;49.648;8.640;2023-01-28T04:08:00;101200.69;;;1.81;100.00
46087;BME280;31824;49.648;8.640;2023-01-28T04:11:24;101205.34;;;1.83;100.00
46087;BME280;31824;49.648;8.640;2023-01-28T04:14:27;101189.38;;;1.80;100.00
46087;BME280;31824;49.648;8.640;2023-01-28T04:17:43;101198.09;;;1.81;100.00
46087;BME280;31824;49.648;8.640;2023-01-28T04:20:50;101199.53;;;1.79;100.00
46087;BME280;31824;49.648;8.640;2023-01-28T04:23:52;101191.97;;;1.80;100.00
46087;BME280;31824;49.648;8.640;2023-01-28T04:26:54;101197.88;;;1.79;100.00
46087;BME280;31824;49.648;8.640;2023-01-28T04:29:58;101199.97;;;1.82;100.00
46087;BME280;31824;49.648;8.640;2023-01-28T04:33:14;101204.44;;;1.83;100.00
46087;BME280;31824;49.648;8.640;2023-01-28T04:36:32;101203.53;;;1.77;100.00
46087;BME280;31824;49.648;8.640;2023-01-28T04:39:52;101204.72;;;1.79;100.00
46087;BME280;31824;49.648;8.640;2023-01-28T04:43:10;101205.63;;;1.79;100.00
46087;BME280;31824;49.648;8.640;2023-01-28T04:46:49;101208.22;;;1.79;100.00
46087;BME280;31824;49.648;8.640;2023-01-28T04:50:08;101211.78;;;1.80;100.00
46087;BME280;31824;49.648;8.640;2023-01-28T04:53:35;101210.81;;;1.79;100.00
46087;BME280;31824;49.648;8.640;2023-01-28T04:56:41;101212.50;;;1.79;100.00
46087;BME280;31824;49.648;8.640;2023-01-28T04:59:43;101213.19;;;1.78;100.00
46087;BME280;31824;49.648;8.640;2023-01-28T05:02:45;101208.72;;;1.77;100.00
46087;BME280;31824;49.648;8.640;2023-01-28T05:05:47;101215.56;;;1.76;100.00
46087;BME280;31824;49.648;8.640;2023-01-28T05:08:58;101208.72;;;1.77;100.00
46087;BME280;31824;49.648;8.640;2023-01-28T05:12:01;101216.50;;;1.77;100.00
46087;BME280;31824;49.648;8.640;2023-01-28T05:15:06;101209.91;;;1.79;100.00
46087;BME280;31824;49.648;8.640;2023-01-28T05:18:07;101216.28;;;1.75;100.00
46087;BME280;31824;49.648;8.640;2023-01-28T05:21:16;101210.19;;;1.75;100.00
46087;BME280;31824;49.648;8.640;2023-01-28T05:24:21;101220.97;;;1.78;100.00
46087;BME280;31824;49.648;8.640;2023-01-28T05:27:23;101223.56;;;1.78;100.00
46087;BME280;31824;49.648;8.640;2023-01-28T05:30:25;101226.66;;;1.75;100.00
46087;BME280;31824;49.648;8.640;2023-01-28T05:33:27;101227.66;;;1.70;100.00
46087;BME280;31824;49.648;8.640;2023-01-28T05:36:28;101222.97;;;1.67;100.00
46087;BME280;31824;49.648;8.640;2023-01-28T05:39:33;101222.97;;;1.67;100.00
46087;BME280;31824;49.648;8.640;2023-01-28T05:42:35;101230.75;;;1.67;100.00
46087;BME280;31824;49.648;8.640;2023-01-28T05:46:12;101240.38;;;1.68;100.00
46087;BME280;31824;49.648;8.640;2023-01-28T05:49:32;101240.38;;;1.68;100.00
46087;BME280;31824;49.648;8.640;2023-01-28T05:52:53;101240.38;;;1.68;100.00
46087;BME280;31824;49.648;8.640;2023-01-28T05:56:00;101250.97;;;1.70;100.00
46087;BME280;31824;49.648;8.640;2023-01-28T05:59:05;101249.59;;;1.66;100.00
46087;BME280;31824;49.648;8.640;2023-01-28T06:02:08;101259.72;;;1.65;100.00
46087;BME280;31824;49.648;8.640;2023-01-28T06:05:10;101263.25;;;1.65;100.00
46087;BME280;31824;49.648;8.640;2023-01-28T06:08:13;101274.09;;;1.63;100.00
46087;BME280;31824;49.648;8.640;2023-01-28T06:11:17;101270.81;;;1.64;100.00
46087;BME280;31824;49.648;8.640;2023-01-28T06:14:21;101276.19;;;1.65;100.00
46087;BME280;31824;49.648;8.640;2023-01-28T06:17:52;101271.97;;;1.66;100.00
46087;BME280;31824;49.648;8.640;2023-01-28T06:21:00;101272.69;;;1.65;100.00
46087;BME280;31824;49.648;8.640;2023-01-28T06:24:02;101270.59;;;1.62;100.00
46087;BME280;31824;49.648;8.640;2023-01-28T06:27:06;101283.97;;;1.65;100.00
46087;BME280;31824;49.648;8.640;2023-01-28T06:30:08;101300.69;;;1.67;100.00
46087;BME280;31824;49.648;8.640;2023-01-28T06:33:10;101305.66;;;1.66;100.00
46087;BME280;31824;49.648;8.640;2023-01-28T06:36:12;101299.28;;;1.64;100.00
46087;BME280;31824;49.648;8.640;2023-01-28T06:39:14;101312.69;;;1.67;100.00
46087;BME280;31824;49.648;8.640;2023-01-28T06:42:17;101311.06;;;1.67;100.00
46087;BME280;31824;49.648;8.640;2023-01-28T06:45:19;101313.16;;;1.64;100.00
46087;BME280;31824;49.648;8.640;2023-01-28T06:48:20;101315.75;;;1.64;100.00
46087;BME280;31824;49.648;8.640;2023-01-28T06:51:22;101313.63;;;1.67;100.00
46087;BME280;31824;49.648;8.640;2023-01-28T06:54:24;101317.66;;;1.65;100.00
46087;BME280;31824;49.648;8.640;2023-01-28T06:57:27;101327.53;;;1.68;100.00
46087;BME280;31824;49.648;8.640;2023-01-28T07:00:29;101329.19;;;1.67;100.00
46087;BME280;31824;49.648;8.640;2023-01-28T07:03:30;101329.41;;;1.69;100.00
46087;BME280;31824;49.648;8.640;2023-01-28T07:06:32;101323.78;;;1.66;100.00
46087;BME280;31824;49.648;8.640;2023-01-28T07:09:34;101315.75;;;1.64;100.00
46087;BME280;31824;49.648;8.640;2023-01-28T07:12:37;101333.41;;;1.67;100.00
46087;BME280;31824;49.648;8.640;2023-01-28T07:15:39;101337.66;;;1.66;100.00
46087;BME280;31824;49.648;8.640;2023-01-28T07:18:41;101332.03;;;1.63;100.00
46087;BME280;31824;49.648;8.640;2023-01-28T07:21:42;101335.78;;;1.65;100.00
46087;BME280;31824;49.648;8.640;2023-01-28T07:24:44;101334.16;;;1.66;100.00
46087;BME280;31824;49.648;8.640;2023-01-28T07:27:49;101337.16;;;1.69;100.00
46087;BME280;31824;49.648;8.640;2023-01-28T07:30:51;101337.88;;;1.68;100.00
46087;BME280;31824;49.648;8.640;2023-01-28T07:33:54;101333.88;;;1.70;100.00
46087;BME280;31824;49.648;8.640;2023-01-28T07:36:56;101331.50;;;1.72;100.00
46087;BME280;31824;49.648;8.640;2023-01-28T07:39:58;101333.59;;;1.74;100.00
46087;BME280;31824;49.648;8.640;2023-01-28T07:43:01;101325.38;;;1.71;100.00
46087;BME280;31824;49.648;8.640;2023-01-28T07:46:10;101327.03;;;1.71;100.00
46087;BME280;31824;49.648;8.640;2023-01-28T07:49:13;101344.19;;;1.76;100.00
46087;BME280;31824;49.648;8.640;2023-01-28T07:52:14;101332.38;;;1.78;100.00
46087;BME280;31824;49.648;8.640;2023-01-28T07:55:16;101341.81;;;1.77;100.00
46087;BME280;31824;49.648;8.640;2023-01-28T07:58:19;101343.91;;;1.80;100.00
46087;BME280;31824;49.648;8.640;2023-01-28T08:01:21;101353.31;;;1.79;100.00
46087;BME280;31824;49.648;8.640;2023-01-28T08:04:23;101351.69;;;1.80;100.00
46087;BME280;31824;49.648;8.640;2023-01-28T08:07:26;101364.66;;;1.80;100.00
46087;BME280;31824;49.648;8.640;2023-01-28T08:10:28;101365.50;;;1.86;100.00
46087;BME280;31824;49.648;8.640;2023-01-28T08:13:31;101363.69;;;1.79;100.00
46087;BME280;31824;49.648;8.640;2023-01-28T08:16:33;101361.72;;;1.90;100.00
46087;BME280;31824;49.648;8.640;2023-01-28T08:19:34;101365.25;;;1.90;100.00
46087;BME280;31824;49.648;8.640;2023-01-28T08:22:37;101371.44;;;1.85;100.00
46087;BME280;31824;49.648;8.640;2023-01-28T08:25:39;101375.13;;;1.93;100.00
46087;BME280;31824;49.648;8.640;2023-01-28T08:28:42;101378.88;;;1.95;100.00
46087;BME280;31824;49.648;8.640;2023-01-28T08:31:44;101374.63;;;1.95;100.00
46087;BME280;31824;49.648;8.640;2023-01-28T08:34:46;101376.25;;;2.00;100.00
46087;BME280;31824;49.648;8.640;2023-01-28T08:37:47;101378.78;;;2.06;100.00
46087;BME280;31824;49.648;8.640;2023-01-28T08:40:49;101381.59;;;2.08;100.00
46087;BME280;31824;49.648;8.640;2023-01-28T08:43:52;101377.13;;;2.31;100.00
46087;BME280;31824;49.648;8.640;2023-01-28T08:46:54;101375.03;;;2.28;100.00
46087;BME280;31824;49.648;8.640;2023-01-28T08:49:56;101368.00;;;2.22;100.00
46087;BME280;31824;49.648;8.640;2023-01-28T08:52:59;101377.03;;;2.18;100.00
46087;BME280;31824;49.648;8.640;2023-01-28T08:56:01;101363.56;;;2.21;100.00
46087;BME280;31824;49.648;8.640;2023-01-28T08:59:04;101369.84;;;2.28;100.00
46087;BME280;31824;49.648;8.640;2023-01-28T09:02:06;101371.44;;;2.33;100.00
46087;BME280;31824;49.648;8.640;2023-01-28T09:05:14;101373.88;;;2.26;100.00
46087;BME280;31824;49.648;8.640;2023-01-28T09:08:16;101374.16;;;2.22;100.00
46087;BME280;31824;49.648;8.640;2023-01-28T09:11:18;101375.75;;;2.27;100.00
46087;BME280;31824;49.648;8.640;2023-01-28T09:14:21;101379.00;;;2.32;100.00
46087;BME280;31824;49.648;8.640;2023-01-28T09:17:43;101378.72;;;2.36;100.00
46087;BME280;31824;49.648;8.640;2023-01-28T09:20:45;101384.84;;;2.36;100.00
46087;BME280;31824;49.648;8.640;2023-01-28T09:23:47;101381.69;;;2.45;100.00
46087;BME280;31824;49.648;8.640;2023-01-28T09:26:49;101393.34;;;2.35;100.00
46087;BME280;31824;49.648;8.640;2023-01-28T09:29:52;101396.50;;;2.27;100.00
46087;BME280;31824;49.648;8.640;2023-01-28T09:32:55;101395.69;;;2.40;100.00
46087;BME280;31824;49.648;8.640;2023-01-28T09:35:59;101401.28;;;2.43;100.00
46087;BME280;31824;49.648;8.640;2023-01-28T09:39:01;101411.50;;;2.35;100.00
46087;BME280;31824;49.648;8.640;2023-01-28T09:42:18;101414.75;;;2.40;100.00
46087;BME280;31824;49.648;8.640;2023-01-28T09:45:30;101414.03;;;2.41;100.00
46087;BME280;31824;49.648;8.640;2023-01-28T09:48:38;101414.41;;;2.50;100.00
46087;BME280;31824;49.648;8.640;2023-01-28T09:51:42;101409.50;;;2.46;100.00
46087;BME280;31824;49.648;8.640;2023-01-28T09:54:47;101406.13;;;2.52;100.00
46087;BME280;31824;49.648;8.640;2023-01-28T09:57:53;101407.91;;;2.41;100.00
46087;BME280;31824;49.648;8.640;2023-01-28T10:00:59;101416.16;;;2.62;100.00
46087;BME280;31824;49.648;8.640;2023-01-28T10:04:17;101407.69;;;2.63;100.00
46087;BME280;31824;49.648;8.640;2023-01-28T10:07:31;101414.03;;;2.65;100.00
46087;BME280;31824;49.648;8.640;2023-01-28T10:10:40;101417.00;;;2.74;100.00
46087;BME280;31824;49.648;8.640;2023-01-28T10:13:48;101419.38;;;2.73;100.00
46087;BME280;31824;49.648;8.640;2023-01-28T10:16:57;101413.34;;;2.61;100.00
46087;BME280;31824;49.648;8.640;2023-01-28T10:20:06;101425.78;;;2.69;100.00
46087;BME280;31824;49.648;8.640;2023-01-28T10:23:21;101422.19;;;2.74;100.00
46087;BME280;31824;49.648;8.640;2023-01-28T10:26:30;101427.50;;;2.63;100.00
46087;BME280;31824;49.648;8.640;2023-01-28T10:29:33;101424.03;;;2.57;100.00
46087;BME280;31824;49.648;8.640;2023-01-28T10:32:42;101428.69;;;2.83;100.00
46087;BME280;31824;49.648;8.640;2023-01-28T10:35:45;101420.56;;;2.69;100.00
46087;BME280;31824;49.648;8.640;2023-01-28T10:38:48;101426.38;;;2.79;100.00
46087;BME280;31824;49.648;8.640;2023-01-28T10:41:51;101436.34;;;2.76;100.00
46087;BME280;31824;49.648;8.640;2023-01-28T10:45:01;101428.97;;;2.79;100.00
46087;BME280;31824;49.648;8.640;2023-01-28T10:48:12;101435.59;;;2.77;100.00
46087;BME280;31824;49.648;8.640;2023-01-28T10:51:17;101440.47;;;3.06;100.00
46087;BME280;31824;49.648;8.640;2023-01-28T10:54:26;101436.19;;;2.87;100.00
46087;BME280;31824;49.648;8.640;2023-01-28T10:57:28;101433.31;;;2.92;100.00
46087;BME280;31824;49.648;8.640;2023-01-28T11:00:33;101433.66;;;3.00;100.00
46087;BME280;31824;49.648;8.640;2023-01-28T11:03:37;101441.69;;;3.02;100.00
46087;BME280;31824;49.648;8.640;2023-01-28T11:06:52;101439.88;;;2.95;100.00
46087;BME280;31824;49.648;8.640;2023-01-28T11:09:58;101436.53;;;2.96;100.00
46087;BME280;31824;49.648;8.640;2023-01-28T11:13:02;101437.94;;;3.00;100.00
46087;BME280;31824;49.648;8.640;2023-01-28T11:16:13;101440.09;;;2.97;100.00
46087;BME280;31824;49.648;8.640;2023-01-28T11:19:20;101447.66;;;3.14;100.00
46087;BME280;31824;49.648;8.640;2023-01-28T11:22:32;101444.06;;;3.19;100.00
46087;BME280;31824;49.648;8.640;2023-01-28T11:25:35;101445.25;;;3.21;100.00
46087;BME280;31824;49.648;8.640;2023-01-28T11:28:40;101451.16;;;3.20;100.00
46087;BME280;31824;49.648;8.640;2023-01-28T11:31:43;101447.75;;;3.08;100.00
46087;BME280;31824;49.648;8.640;2023-01-28T11:34:51;101432.53;;;2.98;100.00
46087;BME280;31824;49.648;8.640;2023-01-28T11:37:53;101435.16;;;3.17;100.00
46087;BME280;31824;49.648;8.640;2023-01-28T11:40:56;101432.16;;;3.08;100.00
46087;BME280;31824;49.648;8.640;2023-01-28T11:44:14;101431.84;;;2.94;100.00
46087;BME280;31824;49.648;8.640;2023-01-28T11:47:36;101428.66;;;3.08;100.00
46087;BME280;31824;49.648;8.640;2023-01-28T11:50:49;101433.31;;;2.92;100.00
46087;BME280;31824;49.648;8.640;2023-01-28T11:53:59;101431.00;;;2.87;100.00
46087;BME280;31824;49.648;8.640;2023-01-28T11:57:21;101432.88;;;2.89;100.00
46087;BME280;31824;49.648;8.640;2023-01-28T12:00:34;101425.59;;;2.86;100.00
46087;BME280;31824;49.648;8.640;2023-01-28T12:03:43;101421.53;;;2.88;100.00
46087;BME280;31824;49.648;8.640;2023-01-28T12:07:02;101424.31;;;2.95;100.00
46087;BME280;31824;49.648;8.640;2023-01-28T12:10:17;101425.59;;;2.86;100.00
46087;BME280;31824;49.648;8.640;2023-01-28T12:13:32;101416.13;;;2.86;100.00
46087;BME280;31824;49.648;8.640;2023-01-28T12:16:44;101416.91;;;2.80;100.00
46087;BME280;31824;49.648;8.640;2023-01-28T12:20:01;101417.28;;;2.70;100.00
46087;BME280;31824;49.648;8.640;2023-01-28T12:23:29;101411.09;;;2.75;100.00
46087;BME280;31824;49.648;8.640;2023-01-28T12:26:40;101417.38;;;2.83;100.00
46087;BME280;31824;49.648;8.640;2023-01-28T12:29:55;101410.94;;;2.68;100.00
46087;BME280;31824;49.648;8.640;2023-01-28T12:33:22;101411.44;;;2.65;100.00
46087;BME280;31824;49.648;8.640;2023-01-28T12:36:36;101407.97;;;2.59;100.00
46087;BME280;31824;49.648;8.640;2023-01-28T12:39:55;101415.03;;;2.60;100.00
46087;BME280;31824;49.648;8.640;2023-01-28T12:43:03;101412.81;;;2.45;100.00
46087;BME280;31824;49.648;8.640;2023-01-28T12:46:11;101403.41;;;2.45;100.00
46087;BME280;31824;49.648;8.640;2023-01-28T12:49:22;101402.22;;;2.43;100.00
46087;BME280;31824;49.648;8.640;2023-01-28T12:52:28;101406.09;;;2.34;100.00
46087;BME280;31824;49.648;8.640;2023-01-28T12:55:38;101418.88;;;2.27;100.00
46087;BME280;31824;49.648;8.640;2023-01-28T12:58:45;101417.63;;;2.36;100.00
46087;BME280;31824;49.648;8.640;2023-01-28T13:01:50;101402.78;;;2.35;100.00
46087;BME280;31824;49.648;8.640;2023-01-28T13:05:01;101407.75;;;2.33;100.00
46087;BME280;31824;49.648;8.640;2023-01-28T13:08:10;101401.16;;;2.54;100.00
46087;BME280;31824;49.648;8.640;2023-01-28T13:11:17;101395.88;;;2.65;100.00
46087;BME280;31824;49.648;8.640;2023-01-28T13:14:27;101399.25;;;2.59;100.00
46087;BME280;31824;49.648;8.640;2023-01-28T13:17:30;101407.19;;;2.42;100.00
46087;BME280;31824;49.648;8.640;2023-01-28T13:20:37;101404.38;;;2.40;100.00
46087;BME280;31824;49.648;8.640;2023-01-28T13:23:41;101402.84;;;2.29;100.00
46087;BME280;31824;49.648;8.640;2023-01-28T13:26:46;101413.31;;;2.18;100.00
46087;BME280;31824;49.648;8.640;2023-01-28T13:29:58;101416.56;;;2.23;100.00
46087;BME280;31824;49.648;8.640;2023-01-28T13:33:24;101427.84;;;2.29;100.00
46087;BME280;31824;49.648;8.640;2023-01-28T13:36:28;101418.31;;;2.11;100.00
46087;BME280;31824;49.648;8.640;2023-01-28T13:39:33;101428.19;;;2.13;100.00
46087;BME280;31824;49.648;8.640;2023-01-28T13:42:38;101435.09;;;2.07;100.00
46087;BME280;31824;49.648;8.640;2023-01-28T13:45:41;101453.94;;;2.06;100.00
46087;BME280;31824;49.648;8.640;2023-01-28T13:48:45;101440.13;;;1.94;100.00
46087;BME280;31824;49.648;8.640;2023-01-28T13:51:57;101441.19;;;2.08;100.00
46087;BME280;31824;49.648;8.640;2023-01-28T13:55:04;101455.63;;;2.06;100.00
46087;BME280;31824;49.648;8.640;2023-01-28T13:58:27;101459.66;;;1.98;100.00
46087;BME280;31824;49.648;8.640;2023-01-28T14:01:51;101460.16;;;1.95;100.00
46087;BME280;31824;49.648;8.640;2023-01-28T14:08:50;101476.63;;;2.01;100.00
46087;BME280;31824;49.648;8.640;2023-01-28T14:12:19;101462.03;;;1.96;100.00
46087;BME280;31824;49.648;8.640;2023-01-28T14:15:49;101479.47;;;1.92;100.00
46087;BME280;31824;49.648;8.640;2023-01-28T14:18:59;101476.34;;;1.70;100.00
46087;BME280;31824;49.648;8.640;2023-01-28T14:22:05;101480.50;;;1.81;100.00
46087;BME280;31824;49.648;8.640;2023-01-28T14:25:11;101487.16;;;1.73;100.00
46087;BME280;31824;49.648;8.640;2023-01-28T14:28:19;101484.44;;;1.55;100.00
46087;BME280;31824;49.648;8.640;2023-01-28T14:31:27;101485.38;;;1.55;100.00
46087;BME280;31824;49.648;8.640;2023-01-28T14:34:33;101485.84;;;1.58;100.00
46087;BME280;31824;49.648;8.640;2023-01-28T14:37:37;101483.91;;;1.63;100.00
46087;BME280;31824;49.648;8.640;2023-01-28T14:40:39;101484.38;;;1.60;100.00
46087;BME280;31824;49.648;8.640;2023-01-28T14:43:41;101496.94;;;1.51;100.00
46087;BME280;31824;49.648;8.640;2023-01-28T14:46:50;101493.63;;;1.47;100.00
46087;BME280;31824;49.648;8.640;2023-01-28T14:50:09;101488.72;;;1.43;100.00
46087;BME280;31824;49.648;8.640;2023-01-28T14:53:34;101496.25;;;1.41;100.00
46087;BME280;31824;49.648;8.640;2023-01-28T14:56:51;101492.25;;;1.43;100.00
46087;BME280;31824;49.648;8.640;2023-01-28T14:59:56;101496.25;;;1.41;100.00
46087;BME280;31824;49.648;8.640;2023-01-28T15:03:16;101493.88;;;1.43;100.00
46087;BME280;31824;49.648;8.640;2023-01-28T15:06:30;101502.88;;;1.39;100.00
46087;BME280;31824;49.648;8.640;2023-01-28T15:09:34;101507.34;;;1.34;100.00
46087;BME280;31824;49.648;8.640;2023-01-28T15:12:40;101505.75;;;1.29;100.00
46087;BME280;31824;49.648;8.640;2023-01-28T15:15:46;101514.16;;;1.40;100.00
46087;BME280;31824;49.648;8.640;2023-01-28T15:18:51;101512.75;;;1.42;100.00
46087;BME280;31824;49.648;8.640;2023-01-28T15:21:54;101498.84;;;1.41;100.00
46087;BME280;31824;49.648;8.640;2023-01-28T15:24:57;101500.09;;;1.26;100.00
46087;BME280;31824;49.648;8.640;2023-01-28T15:28:01;101493.94;;;1.31;100.00
46087;BME280;31824;49.648;8.640;2023-01-28T15:31:03;101497.25;;;1.36;100.00
46087;BME280;31824;49.648;8.640;2023-01-28T15:34:15;101491.06;;;1.41;100.00
46087;BME280;31824;49.648;8.640;2023-01-28T15:37:17;101478.22;;;1.24;100.00
46087;BME280;31824;49.648;8.640;2023-01-28T15:40:21;101479.66;;;1.16;100.00
46087;BME280;31824;49.648;8.640;2023-01-28T15:43:28;101485.31;;;1.14;100.00
46087;BME280;31824;49.648;8.640;2023-01-28T15:46:31;101497.38;;;1.02;100.00
46087;BME280;31824;49.648;8.640;2023-01-28T15:49:35;101492.66;;;0.99;100.00
46087;BME280;31824;49.648;8.640;2023-01-28T15:52:40;101499.47;;;0.99;100.00
46087;BME280;31824;49.648;8.640;2023-01-28T15:55:44;101506.09;;;0.91;100.00
46087;BME280;31824;49.648;8.640;2023-01-28T15:58:46;101507.03;;;0.92;100.00
46087;BME280;31824;49.648;8.640;2023-01-28T16:01:48;101508.41;;;0.90;100.00
46087;BME280;31824;49.648;8.640;2023-01-28T16:08:58;101503.75;;;0.81;100.00
46087;BME280;31824;49.648;8.640;2023-01-28T16:12:23;101500.47;;;0.77;100.00
46087;BME280;31824;49.648;8.640;2023-01-28T16:16:08;101490.38;;;0.73;100.00
46087;BME280;31824;49.648;8.640;2023-01-28T16:19:36;101498.34;;;0.74;100.00
46087;BME280;31824;49.648;8.640;2023-01-28T16:22:47;101512.94;;;0.79;100.00
46087;BME280;31824;49.648;8.640;2023-01-28T16:26:00;101521.41;;;0.78;100.00
46087;BME280;31824;49.648;8.640;2023-01-28T16:29:12;101515.03;;;0.71;100.00
46087;BME280;31824;49.648;8.640;2023-01-28T16:32:30;101527.53;;;0.67;100.00